sensor_id;sensor_type;location;lat;lon;timestamp;P1;durP1;ratioP1;P2;durP2;ratioP2
9506;SDS011;4791;47.528;9.372;2023-08-20T00:01:50;11.23;;;7.00;;
9506;SDS011;4791;47.528;9.372;2023-08-20T00:16:56;7.10;;;5.97;;
9506;SDS011;4791;47.528;9.372;2023-08-20T00:31:57;11.48;;;7.35;;
9506;SDS011;4791;47.528;9.372;2023-08-20T00:46:57;11.10;;;7.17;;
9506;SDS011;4791;47.528;9.372;2023-08-20T01:02:00;14.50;;;7.40;;
9506;SDS011;4791;47.528;9.372;2023-08-20T01:17:01;9.55;;;8.00;;
9506;SDS011;4791;47.528;9.372;2023-08-20T01:32:04;10.80;;;8.20;;
9506;SDS011;4791;47.528;9.372;2023-08-20T01:47:05;10.65;;;8.07;;
9506;SDS011;4791;47.528;9.372;2023-08-20T02:02:08;10.05;;;8.60;;
9506;SDS011;4791;47.528;9.372;2023-08-20T02:17:09;10.30;;;7.40;;
9506;SDS011;4791;47.528;9.372;2023-08-20T02:32:10;12.10;;;7.78;;
9506;SDS011;4791;47.528;9.372;2023-08-20T02:47:10;9.50;;;8.13;;
9506;SDS011;4791;47.528;9.372;2023-08-20T03:02:12;10.90;;;7.53;;
9506;SDS011;4791;47.528;9.372;2023-08-20T03:17:13;13.37;;;8.17;;
9506;SDS011;4791;47.528;9.372;2023-08-20T03:32:18;12.27;;;8.63;;
9506;SDS011;4791;47.528;9.372;2023-08-20T03:47:18;13.57;;;8.15;;
9506;SDS011;4791;47.528;9.372;2023-08-20T04:02:24;9.63;;;8.53;;
9506;SDS011;4791;47.528;9.372;2023-08-20T04:17:24;10.27;;;8.57;;
9506;SDS011;4791;47.528;9.372;2023-08-20T04:32:25;10.43;;;8.13;;
9506;SDS011;4791;47.528;9.372;2023-08-20T04:47:27;13.33;;;8.63;;
9506;SDS011;4791;47.528;9.372;2023-08-20T05:02:30;10.23;;;7.40;;
9506;SDS011;4791;47.528;9.372;2023-08-20T05:17:30;9.00;;;7.97;;
9506;SDS011;4791;47.528;9.372;2023-08-20T05:32:31;8.67;;;7.57;;
9506;SDS011;4791;47.528;9.372;2023-08-20T05:47:33;13.03;;;7.77;;
9506;SDS011;4791;47.528;9.372;2023-08-20T06:02:34;12.63;;;8.27;;
9506;SDS011;4791;47.528;9.372;2023-08-20T06:17:34;9.20;;;7.07;;
9506;SDS011;4791;47.528;9.372;2023-08-20T06:32:37;14.45;;;8.27;;
9506;SDS011;4791;47.528;9.372;2023-08-20T06:47:42;9.30;;;7.90;;
9506;SDS011;4791;47.528;9.372;2023-08-20T07:02:45;12.07;;;7.57;;
9506;SDS011;4791;47.528;9.372;2023-08-20T07:17:45;9.57;;;7.03;;
9506;SDS011;4791;47.528;9.372;2023-08-20T07:32:45;9.75;;;7.95;;
9506;SDS011;4791;47.528;9.372;2023-08-20T07:47:48;10.60;;;8.00;;
9506;SDS011;4791;47.528;9.372;2023-08-20T08:02:48;9.20;;;7.57;;
9506;SDS011;4791;47.528;9.372;2023-08-20T08:17:51;12.00;;;8.67;;
9506;SDS011;4791;47.528;9.372;2023-08-20T08:32:51;8.87;;;7.40;;
9506;SDS011;4791;47.528;9.372;2023-08-20T08:47:52;10.73;;;7.43;;
9506;SDS011;4791;47.528;9.372;2023-08-20T09:02:54;8.95;;;6.82;;
9506;SDS011;4791;47.528;9.372;2023-08-20T09:17:54;9.47;;;6.83;;
9506;SDS011;4791;47.528;9.372;2023-08-20T09:33:12;12.20;;;7.28;;
9506;SDS011;4791;47.528;9.372;2023-08-20T09:48:18;9.33;;;6.87;;
9506;SDS011;4791;47.528;9.372;2023-08-20T10:03:20;9.87;;;6.43;;
9506;SDS011;4791;47.528;9.372;2023-08-20T10:18:22;12.60;;;7.50;;
9506;SDS011;4791;47.528;9.372;2023-08-20T10:33:25;8.73;;;7.27;;
9506;SDS011;4791;47.528;9.372;2023-08-20T10:48:26;9.68;;;6.38;;
9506;SDS011;4791;47.528;9.372;2023-08-20T11:03:26;8.57;;;6.47;;
9506;SDS011;4791;47.528;9.372;2023-08-20T11:18:30;8.30;;;5.87;;
9506;SDS011;4791;47.528;9.372;2023-08-20T11:33:34;6.93;;;5.00;;
9506;SDS011;4791;47.528;9.372;2023-08-20T11:48:35;7.57;;;5.47;;
9506;SDS011;4791;47.528;9.372;2023-08-20T12:03:37;8.17;;;5.00;;
9506;SDS011;4791;47.528;9.372;2023-08-20T12:18:46;9.57;;;4.67;;
9506;SDS011;4791;47.528;9.372;2023-08-20T12:33:46;8.45;;;5.05;;
9506;SDS011;4791;47.528;9.372;2023-08-20T12:48:47;9.30;;;4.70;;
9506;SDS011;4791;47.528;9.372;2023-08-20T13:03:47;10.32;;;4.45;;
9506;SDS011;4791;47.528;9.372;2023-08-20T13:18:48;9.23;;;4.30;;
9506;SDS011;4791;47.528;9.372;2023-08-20T13:33:49;7.43;;;3.85;;
9506;SDS011;4791;47.528;9.372;2023-08-20T13:48:52;9.07;;;4.00;;
9506;SDS011;4791;47.528;9.372;2023-08-20T14:03:55;7.93;;;3.57;;
9506;SDS011;4791;47.528;9.372;2023-08-20T14:18:55;5.87;;;3.07;;
9506;SDS011;4791;47.528;9.372;2023-08-20T14:33:56;6.10;;;2.73;;
9506;SDS011;4791;47.528;9.372;2023-08-20T14:48:58;5.10;;;2.30;;
9506;SDS011;4791;47.528;9.372;2023-08-20T15:04:04;5.03;;;2.40;;
9506;SDS011;4791;47.528;9.372;2023-08-20T15:19:06;7.97;;;2.03;;
9506;SDS011;4791;47.528;9.372;2023-08-20T15:34:07;6.00;;;2.30;;
9506;SDS011;4791;47.528;9.372;2023-08-20T15:49:07;6.65;;;2.35;;
9506;SDS011;4791;47.528;9.372;2023-08-20T16:04:08;6.20;;;2.73;;
9506;SDS011;4791;47.528;9.372;2023-08-20T16:19:08;3.63;;;2.13;;
9506;SDS011;4791;47.528;9.372;2023-08-20T16:34:11;4.93;;;2.60;;
9506;SDS011;4791;47.528;9.372;2023-08-20T16:49:12;3.90;;;2.40;;
9506;SDS011;4791;47.528;9.372;2023-08-20T17:04:12;6.63;;;2.50;;
9506;SDS011;4791;47.528;9.372;2023-08-20T17:19:13;5.70;;;2.90;;
9506;SDS011;4791;47.528;9.372;2023-08-20T17:34:14;14.07;;;3.60;;
9506;SDS011;4791;47.528;9.372;2023-08-20T17:49:17;4.80;;;3.07;;
9506;SDS011;4791;47.528;9.372;2023-08-20T18:04:20;6.93;;;3.30;;
9506;SDS011;4791;47.528;9.372;2023-08-20T18:19:20;9.20;;;3.37;;
9506;SDS011;4791;47.528;9.372;2023-08-20T18:34:20;5.33;;;3.50;;
9506;SDS011;4791;47.528;9.372;2023-08-20T18:49:25;9.63;;;3.13;;
9506;SDS011;4791;47.528;9.372;2023-08-20T19:04:26;6.37;;;2.77;;
9506;SDS011;4791;47.528;9.372;2023-08-20T19:19:28;3.92;;;2.38;;
9506;SDS011;4791;47.528;9.372;2023-08-20T19:34:30;4.80;;;2.80;;
9506;SDS011;4791;47.528;9.372;2023-08-20T19:49:30;6.77;;;2.80;;
9506;SDS011;4791;47.528;9.372;2023-08-20T20:04:31;7.90;;;2.35;;
9506;SDS011;4791;47.528;9.372;2023-08-20T20:19:31;5.72;;;2.90;;
9506;SDS011;4791;47.528;9.372;2023-08-20T20:34:32;4.90;;;2.30;;
9506;SDS011;4791;47.528;9.372;2023-08-20T20:49:34;4.53;;;2.37;;
9506;SDS011;4791;47.528;9.372;2023-08-20T21:04:39;4.35;;;2.60;;
9506;SDS011;4791;47.528;9.372;2023-08-20T21:19:42;3.83;;;2.47;;
9506;SDS011;4791;47.528;9.372;2023-08-20T21:34:47;4.47;;;2.83;;
9506;SDS011;4791;47.528;9.372;2023-08-20T21:49:48;6.73;;;4.00;;
9506;SDS011;4791;47.528;9.372;2023-08-20T22:04:49;4.80;;;3.60;;
9506;SDS011;4791;47.528;9.372;2023-08-20T22:19:49;12.13;;;4.13;;
9506;SDS011;4791;47.528;9.372;2023-08-20T22:34:52;8.67;;;3.90;;
9506;SDS011;4791;47.528;9.372;2023-08-20T22:49:53;6.53;;;3.80;;
9506;SDS011;4791;47.528;9.372;2023-08-20T23:04:53;6.53;;;4.00;;
9506;SDS011;4791;47.528;9.372;2023-08-20T23:19:58;8.48;;;5.28;;
9506;SDS011;4791;47.528;9.372;2023-08-20T23:34:59;6.25;;;4.65;;
9506;SDS011;4791;47.528;9.372;2023-08-20T23:49:59;9.47;;;4.80;;
